Tekoa, Washington
Current Conditions -  °F | °C
As of 3:53 AM on Wednesday 28 Jan 2015 (Local Time) from KPUW Reporting Station
Haze Haze  
Wind Chill: 31°   Ceiling: 200
Heat Index: 39°   Visibility: 6mi
Dew Point: 38°   Wind: 14mph
Humidity: 96%   Direction: 250°WSW
Pressure: 30.25"   Gusts: NA
Location:  47.22°N, 117.07°W
Report Text: KPUW 281153Z AUTO 25012KT 6SM BR OVC002 04/03 A3025 RMK AO2 CIG 001V005 SLP254 T00390033 10044 20033 51021
Loading
Personal Weather Stations






























Interactive Weather Map New forecast layout! Learn more

10-Day Weather Forecast

Advertisements
Track Severe Weather on mobile